Time;durP1;ratioP1;P1;durP2;ratioP2;P2;SDS_P1;SDS_P2;PMS_P1;PMS_P2;Temp;Humidity;BMP_temperature;BMP_pressure;BME280_temperature;BME280_humidity;BME280_pressure;Samples;Min_cycle;Max_cycle;Signal;HPM_P1;HPM_P2
2022/03/24 00:02:22;;;;;;;7.25;4.60;;;18.60;99.90;;;;;;5037546;28;20083;-66
2022/03/24 00:04:49;;;;;;;7.70;6.22;;;18.50;99.90;;;;;;5035827;28;20555;-66
2022/03/24 00:07:16;;;;;;;8.65;5.53;;;18.60;99.90;;;;;;5038256;28;20071;-65
2022/03/24 00:09:43;;;;;;;5.55;3.75;;;18.60;99.90;;;;;;5039164;28;20025;-66
2022/03/24 00:12:10;;;;;;;11.73;8.55;;;18.60;99.90;;;;;;5038699;28;20031;-66
2022/03/24 00:14:37;;;;;;;8.68;5.90;;;18.60;99.90;;;;;;5040011;28;20447;-66
2022/03/24 00:17:04;;;;;;;9.57;5.97;;;18.50;99.90;;;;;;5038037;28;20482;-66
2022/03/24 00:19:31;;;;;;;8.30;6.68;;;18.50;99.90;;;;;;5040039;28;20025;-66
2022/03/24 00:21:58;;;;;;;8.07;5.65;;;18.50;99.90;;;;;;5039049;28;20246;-66
2022/03/24 00:24:25;;;;;;;8.73;5.60;;;18.60;99.90;;;;;;5040151;28;20080;-67
2022/03/24 00:26:53;;;;;;;7.10;5.28;;;18.50;99.90;;;;;;5038332;28;20055;-65
2022/03/24 00:29:20;;;;;;;5.78;4.57;;;18.50;99.90;;;;;;5037327;28;20227;-69
2022/03/24 00:31:47;;;;;;;9.15;4.05;;;18.50;99.90;;;;;;5037393;28;20022;-65
2022/03/24 00:34:14;;;;;;;6.97;5.28;;;18.60;99.90;;;;;;5037934;28;20064;-67
2022/03/24 00:36:42;;;;;;;8.52;3.72;;;18.70;99.90;;;;;;5043479;28;20504;-67
2022/03/24 00:39:08;;;;;;;8.70;6.43;;;18.60;99.90;;;;;;5044466;28;20063;-69
2022/03/24 00:41:35;;;;;;;8.07;4.20;;;18.60;99.90;;;;;;5039977;28;20430;-66
2022/03/24 00:44:03;;;;;;;6.68;3.38;;;18.60;99.90;;;;;;5044913;28;20021;-66
2022/03/24 00:46:31;;;;;;;7.85;4.60;;;18.60;99.90;;;;;;5042428;28;20033;-66
2022/03/24 00:48:58;;;;;;;4.65;3.70;;;18.60;99.90;;;;;;5042336;28;20017;-67
2022/03/24 00:51:26;;;;;;;7.20;4.10;;;18.50;99.90;;;;;;5046009;28;20016;-67
2022/03/24 00:53:53;;;;;;;7.05;4.13;;;18.50;99.90;;;;;;5043759;28;20561;-68
2022/03/24 00:56:20;;;;;;;8.50;3.90;;;18.60;99.90;;;;;;5043056;28;20044;-67
2022/03/24 00:58:47;;;;;;;7.93;4.97;;;18.50;99.90;;;;;;5039401;28;20021;-67
2022/03/24 01:01:14;;;;;;;5.25;3.70;;;18.60;99.90;;;;;;5045884;28;20032;-64
2022/03/24 01:03:43;;;;;;;6.88;3.58;;;18.50;99.90;;;;;;5040048;28;20021;-64
2022/03/24 01:06:10;;;;;;;5.95;4.05;;;18.50;99.90;;;;;;5043733;28;20158;-67
2022/03/24 01:08:38;;;;;;;4.68;3.22;;;18.50;99.90;;;;;;5041332;28;20029;-66
2022/03/24 01:11:05;;;;;;;3.50;3.00;;;18.60;99.90;;;;;;5043862;28;20021;-67
2022/03/24 01:13:34;;;;;;;6.05;4.25;;;18.60;99.90;;;;;;5041018;28;20154;-63
2022/03/24 01:16:03;;;;;;;14.10;8.88;;;18.60;99.90;;;;;;5042879;28;20029;-68
2022/03/24 01:18:34;;;;;;;6.40;4.43;;;18.60;99.90;;;;;;5040259;28;20026;-65
2022/03/24 01:21:03;;;;;;;5.93;4.85;;;18.60;99.90;;;;;;5043454;28;20447;-68
2022/03/24 01:23:31;;;;;;;5.90;3.03;;;18.60;99.90;;;;;;5040745;28;20132;-65
2022/03/24 01:26:00;;;;;;;5.57;3.13;;;18.60;99.90;;;;;;5040520;28;20017;-65
2022/03/24 01:28:28;;;;;;;5.60;4.50;;;18.60;99.90;;;;;;5042762;28;20041;-65
2022/03/24 01:30:55;;;;;;;6.43;4.70;;;18.60;99.90;;;;;;5041799;28;20418;-68
2022/03/24 01:33:22;;;;;;;10.40;5.18;;;18.60;99.90;;;;;;5039353;28;20051;-68
2022/03/24 01:35:50;;;;;;;6.90;4.32;;;18.60;99.90;;;;;;5042072;28;20117;-67
2022/03/24 01:38:18;;;;;;;7.05;4.90;;;18.70;99.90;;;;;;5041094;28;20178;-68
2022/03/24 01:40:45;;;;;;;6.60;2.95;;;18.70;99.90;;;;;;5038318;28;20083;-65
2022/03/24 01:43:12;;;;;;;5.03;3.30;;;18.80;99.90;;;;;;5043380;28;20452;-68
2022/03/24 01:45:39;;;;;;;7.28;2.95;;;18.90;99.90;;;;;;5040019;28;20017;-64
2022/03/24 01:48:10;;;;;;;4.93;2.40;;;18.90;99.90;;;;;;5042829;28;20028;-67
2022/03/24 01:50:39;;;;;;;6.95;2.70;;;18.90;99.90;;;;;;5038890;28;20383;-65
2022/03/24 01:53:06;;;;;;;4.60;2.92;;;18.90;99.90;;;;;;5043235;28;20033;-66
2022/03/24 01:55:34;;;;;;;11.13;6.57;;;19.10;99.90;;;;;;5040663;28;20431;-68
2022/03/24 01:58:03;;;;;;;10.50;5.97;;;19.30;99.90;;;;;;5039339;28;20037;-64
2022/03/24 02:00:31;;;;;;;13.52;8.43;;;19.50;99.90;;;;;;5044232;28;20387;-66
2022/03/24 02:03:01;;;;;;;11.43;8.50;;;19.70;99.90;;;;;;5040796;28;20050;-64
2022/03/24 02:05:32;;;;;;;11.63;9.77;;;19.80;99.90;;;;;;5037724;28;20483;-65
2022/03/24 02:08:03;;;;;;;14.15;9.27;;;19.80;99.90;;;;;;5042024;28;20040;-66
2022/03/24 02:10:34;;;;;;;9.70;8.73;;;19.80;99.90;;;;;;5043644;28;20025;-64
2022/03/24 02:13:03;;;;;;;11.88;9.45;;;19.80;99.90;;;;;;5040051;28;20052;-64
2022/03/24 02:15:32;;;;;;;9.55;7.60;;;19.80;99.90;;;;;;5040171;28;20711;-65
2022/03/24 02:18:00;;;;;;;14.40;10.23;;;19.90;99.90;;;;;;5037011;28;20022;-66
2022/03/24 02:20:30;;;;;;;12.35;10.27;;;19.90;99.90;;;;;;5042892;28;20032;-65
2022/03/24 02:22:57;;;;;;;13.82;12.38;;;19.90;99.90;;;;;;5039606;28;20075;-67
2022/03/24 02:25:31;;;;;;;16.67;14.23;;;19.70;99.90;;;;;;5035690;28;20112;-66
2022/03/24 02:28:01;;;;;;;19.42;15.25;;;19.70;99.90;;;;;;5039233;28;20140;-64
2022/03/24 02:30:29;;;;;;;16.85;14.27;;;19.70;99.90;;;;;;5043602;28;20513;-65
2022/03/24 02:32:56;;;;;;;20.20;15.63;;;19.80;99.90;;;;;;5042788;28;20181;-65
2022/03/24 02:35:23;;;;;;;19.55;15.60;;;19.80;99.90;;;;;;5040491;28;20036;-67
2022/03/24 02:37:50;;;;;;;18.17;14.20;;;19.90;99.90;;;;;;5029822;28;20055;-67
2022/03/24 02:40:18;;;;;;;18.60;13.95;;;20.00;99.90;;;;;;5034842;28;20033;-65
2022/03/24 02:42:46;;;;;;;18.17;14.57;;;20.10;99.90;;;;;;5033006;28;20083;-66
2022/03/24 02:45:13;;;;;;;16.75;14.18;;;20.20;99.90;;;;;;5029215;28;20518;-65
2022/03/24 02:47:40;;;;;;;16.13;12.70;;;20.30;99.90;;;;;;5027539;28;20033;-67
2022/03/24 02:50:09;;;;;;;16.05;11.35;;;20.30;99.90;;;;;;5027813;28;20025;-67
2022/03/24 02:52:36;;;;;;;20.05;18.02;;;20.40;99.90;;;;;;5009811;28;20017;-66
2022/03/24 02:55:03;;;;;;;22.65;18.13;;;20.40;99.90;;;;;;5027771;28;20183;-67
2022/03/24 02:57:30;;;;;;;23.98;21.35;;;20.40;99.90;;;;;;5027973;28;20480;-66
2022/03/24 02:59:57;;;;;;;18.98;15.38;;;20.40;99.90;;;;;;5034094;28;20221;-67
2022/03/24 03:02:25;;;;;;;22.50;17.00;;;20.50;99.90;;;;;;5034154;28;20082;-67
2022/03/24 03:04:53;;;;;;;20.27;16.02;;;20.40;99.90;;;;;;5026538;28;20076;-67
2022/03/24 03:07:21;;;;;;;18.48;15.27;;;20.50;99.90;;;;;;5032664;28;20025;-66
2022/03/24 03:09:48;;;;;;;18.88;15.10;;;20.50;99.90;;;;;;5028090;28;20029;-65
2022/03/24 03:12:16;;;;;;;22.52;18.10;;;20.70;99.90;;;;;;5026458;28;20353;-64
2022/03/24 03:14:43;;;;;;;20.05;17.88;;;20.80;99.90;;;;;;5026952;28;20105;-64
2022/03/24 03:17:11;;;;;;;24.42;21.23;;;21.00;99.90;;;;;;5027975;28;20029;-66
2022/03/24 03:19:39;;;;;;;23.98;16.40;;;21.10;99.90;;;;;;5027310;28;20067;-66
2022/03/24 03:22:06;;;;;;;24.13;21.58;;;21.10;99.90;;;;;;5026656;28;20056;-66
2022/03/24 03:24:33;;;;;;;19.17;15.80;;;21.20;99.90;;;;;;5033988;28;20029;-65
2022/03/24 03:27:00;;;;;;;22.00;17.88;;;21.20;99.90;;;;;;5026271;28;20037;-64
2022/03/24 03:29:27;;;;;;;18.58;15.38;;;21.30;99.90;;;;;;5034098;28;20033;-65
2022/03/24 03:31:55;;;;;;;15.93;9.90;;;21.40;99.90;;;;;;5026167;28;20056;-65
2022/03/24 03:34:24;;;;;;;10.25;8.05;;;21.30;99.90;;;;;;5028953;28;20047;-64
2022/03/24 03:36:53;;;;;;;15.55;6.72;;;21.40;99.90;;;;;;5029795;28;20550;-66
2022/03/24 03:39:21;;;;;;;9.43;5.50;;;21.40;99.90;;;;;;5036448;28;20116;-66
2022/03/24 03:41:48;;;;;;;9.38;4.57;;;21.40;99.90;;;;;;5026397;28;20021;-66
2022/03/24 03:44:15;;;;;;;6.95;3.03;;;21.30;99.90;;;;;;5027640;28;20071;-66
2022/03/24 03:46:42;;;;;;;8.00;4.35;;;21.20;99.90;;;;;;5026928;28;20443;-65
2022/03/24 03:49:10;;;;;;;7.43;3.67;;;21.20;99.90;;;;;;5015955;28;20383;-66
2022/03/24 03:51:37;;;;;;;8.60;4.32;;;21.20;99.90;;;;;;5034450;28;20018;-66
2022/03/24 03:54:10;;;;;;;10.45;4.28;;;21.10;99.90;;;;;;5027802;28;20044;-66
2022/03/24 03:56:39;;;;;;;9.10;3.70;;;21.00;99.90;;;;;;5041291;28;20435;-64
2022/03/24 03:59:07;;;;;;;9.20;3.72;;;20.90;99.90;;;;;;5026468;28;20021;-65
2022/03/24 04:01:36;;;;;;;9.75;3.28;;;20.80;99.90;;;;;;5033758;28;20432;-66
2022/03/24 04:04:04;;;;;;;9.15;3.03;;;20.70;99.90;;;;;;5025732;28;20025;-65
2022/03/24 04:06:32;;;;;;;9.13;2.75;;;20.70;99.90;;;;;;5026406;28;20120;-67
2022/03/24 04:08:59;;;;;;;5.80;2.88;;;20.50;99.90;;;;;;5033744;28;20122;-65
2022/03/24 04:11:26;;;;;;;6.90;3.47;;;20.40;99.90;;;;;;5032246;28;20037;-66
2022/03/24 04:13:53;;;;;;;8.25;4.00;;;20.40;99.90;;;;;;5040922;28;20033;-65
2022/03/24 04:16:20;;;;;;;7.97;2.45;;;20.30;99.90;;;;;;5036785;28;20056;-67
2022/03/24 04:18:47;;;;;;;4.38;1.85;;;20.10;99.90;;;;;;5040592;28;20021;-65
2022/03/24 04:21:16;;;;;;;6.88;1.90;;;20.20;99.90;;;;;;5032877;28;20029;-67
2022/03/24 04:23:44;;;;;;;6.07;1.83;;;20.10;99.90;;;;;;5033245;28;20522;-65
2022/03/24 04:26:11;;;;;;;4.55;1.73;;;20.10;99.90;;;;;;5039421;28;20044;-66
2022/03/24 04:28:38;;;;;;;7.70;2.25;;;20.10;99.90;;;;;;5035620;28;20184;-65
2022/03/24 04:31:06;;;;;;;5.50;1.98;;;20.20;99.90;;;;;;5038765;28;20028;-66
2022/03/24 04:33:33;;;;;;;4.68;1.73;;;20.40;99.90;;;;;;5030040;28;20164;-67
2022/03/24 04:35:59;;;;;;;6.75;2.22;;;20.80;99.90;;;;;;5040042;28;20096;-66
2022/03/24 04:38:27;;;;;;;5.72;1.90;;;21.10;99.90;;;;;;5036850;28;20048;-65
2022/03/24 04:40:56;;;;;;;4.78;1.73;;;21.30;99.90;;;;;;5018126;28;20047;-71
2022/03/24 04:43:23;;;;;;;5.97;1.85;;;21.50;99.90;;;;;;5037949;28;20029;-72
2022/03/24 04:45:50;;;;;;;5.78;1.75;;;21.60;99.90;;;;;;5033975;28;20036;-72
2022/03/24 04:48:18;;;;;;;8.20;2.20;;;21.70;99.90;;;;;;5018600;28;20076;-68
2022/03/24 04:50:45;;;;;;;6.13;1.83;;;21.70;99.90;;;;;;5036471;28;20060;-67
2022/03/24 04:53:15;;;;;;;5.32;1.98;;;21.50;99.90;;;;;;5035693;28;20028;-69
2022/03/24 04:55:43;;;;;;;5.45;2.08;;;21.40;99.90;;;;;;5041182;28;20028;-67
2022/03/24 04:58:11;;;;;;;5.28;1.70;;;21.30;99.90;;;;;;5038456;28;20021;-65
2022/03/24 05:00:39;;;;;;;7.55;2.28;;;21.30;99.90;;;;;;5035864;28;20083;-68
2022/03/24 05:03:06;;;;;;;7.43;2.00;;;21.30;99.90;;;;;;5038196;28;20056;-68
2022/03/24 05:05:33;;;;;;;5.97;1.98;;;21.40;99.90;;;;;;5033944;28;20500;-63
2022/03/24 05:08:00;;;;;;;5.32;2.00;;;21.50;99.90;;;;;;5034257;28;20539;-67
2022/03/24 05:10:27;;;;;;;6.93;2.20;;;21.50;99.90;;;;;;5036858;28;20427;-66
2022/03/24 05:12:54;;;;;;;7.70;1.73;;;21.60;99.90;;;;;;5030597;28;21303;-65
2022/03/24 05:15:22;;;;;;;6.68;2.85;;;21.70;99.90;;;;;;5032222;28;20025;-66
2022/03/24 05:17:49;;;;;;;6.25;2.03;;;21.90;99.90;;;;;;5036994;28;20505;-68
2022/03/24 05:20:16;;;;;;;7.18;2.22;;;22.20;99.90;;;;;;5038548;28;20025;-67
2022/03/24 05:22:43;;;;;;;5.63;2.28;;;22.40;99.90;;;;;;5042322;28;20140;-65
2022/03/24 05:25:10;;;;;;;6.70;1.95;;;22.70;99.90;;;;;;5032008;28;20043;-68
2022/03/24 05:27:37;;;;;;;4.72;1.80;;;22.70;99.90;;;;;;5042883;28;20497;-67
2022/03/24 05:30:05;;;;;;;6.95;2.72;;;22.80;99.90;;;;;;5029438;28;20059;-67
2022/03/24 05:32:32;;;;;;;4.07;1.88;;;23.10;99.90;;;;;;5039097;28;20082;-66
2022/03/24 05:34:59;;;;;;;7.25;2.45;;;23.10;99.90;;;;;;5041291;28;20086;-67
2022/03/24 05:37:26;;;;;;;4.25;2.30;;;22.90;99.90;;;;;;5043500;28;20565;-66
2022/03/24 05:39:52;;;;;;;7.30;2.60;;;22.50;99.90;;;;;;5041912;28;20025;-66
2022/03/24 05:42:20;;;;;;;5.78;2.50;;;22.10;99.90;;;;;;5033999;28;20076;-66
2022/03/24 05:44:47;;;;;;;5.43;2.50;;;21.80;99.90;;;;;;5048625;28;20036;-65
2022/03/24 05:47:14;;;;;;;4.30;2.40;;;21.60;99.90;;;;;;5040802;28;20028;-68
2022/03/24 05:49:41;;;;;;;7.07;3.17;;;21.50;99.90;;;;;;5043958;28;20071;-66
2022/03/24 05:52:08;;;;;;;9.30;4.00;;;21.30;99.90;;;;;;5045896;28;20032;-68
2022/03/24 05:54:35;;;;;;;8.07;2.88;;;21.40;99.90;;;;;;5030795;28;20025;-66
2022/03/24 05:57:03;;;;;;;7.20;2.92;;;21.30;99.90;;;;;;5040272;28;20025;-66
2022/03/24 05:59:30;;;;;;;7.30;2.40;;;21.20;99.90;;;;;;5040836;28;20029;-68
2022/03/24 06:01:57;;;;;;;5.72;2.80;;;21.20;99.90;;;;;;5042020;28;20110;-68
2022/03/24 06:04:25;;;;;;;5.40;2.60;;;21.20;99.90;;;;;;5041453;28;20040;-68
2022/03/24 06:06:55;;;;;;;6.13;2.65;;;21.10;99.90;;;;;;5041840;28;20032;-68
2022/03/24 06:09:23;;;;;;;5.95;2.28;;;21.10;99.90;;;;;;5042131;28;20075;-68
2022/03/24 06:11:52;;;;;;;7.15;2.40;;;20.90;99.90;;;;;;5042563;28;20589;-64
2022/03/24 06:14:20;;;;;;;6.25;1.95;;;20.80;99.90;;;;;;5041665;28;20406;-68
2022/03/24 06:16:48;;;;;;;6.10;2.20;;;20.80;99.90;;;;;;5040793;28;20467;-66
2022/03/24 06:19:15;;;;;;;8.27;2.70;;;20.70;99.90;;;;;;5034377;28;20025;-69
2022/03/24 06:21:42;;;;;;;6.65;2.17;;;20.70;99.90;;;;;;5041172;28;20538;-67
2022/03/24 06:24:09;;;;;;;5.95;2.40;;;20.80;99.90;;;;;;5040315;28;20029;-69
2022/03/24 06:26:37;;;;;;;5.43;2.33;;;20.80;99.90;;;;;;5040716;28;20040;-65
2022/03/24 06:29:04;;;;;;;7.88;2.47;;;20.80;99.90;;;;;;5041893;28;20056;-68
2022/03/24 06:31:31;;;;;;;5.20;2.80;;;20.90;99.90;;;;;;5040521;28;20616;-65
2022/03/24 06:33:59;;;;;;;4.93;2.05;;;20.90;99.90;;;;;;5038585;28;20357;-71
2022/03/24 06:36:27;;;;;;;8.43;3.03;;;21.00;99.90;;;;;;5041997;28;20452;-69
2022/03/24 06:38:54;;;;;;;6.03;3.15;;;20.90;99.90;;;;;;5040547;28;20033;-70
2022/03/24 06:41:22;;;;;;;7.85;4.00;;;20.90;99.90;;;;;;5040960;28;20376;-67
2022/03/24 06:43:49;;;;;;;7.35;2.92;;;20.90;99.90;;;;;;5040726;28;20028;-70
2022/03/24 06:46:16;;;;;;;6.93;3.30;;;20.90;99.90;;;;;;5041216;28;20041;-70
2022/03/24 06:48:43;;;;;;;6.97;4.30;;;20.90;99.90;;;;;;5040381;28;20417;-69
2022/03/24 06:51:10;;;;;;;7.20;2.58;;;20.90;99.90;;;;;;5040608;28;20525;-65
2022/03/24 06:53:37;;;;;;;5.43;3.55;;;20.90;99.90;;;;;;5038743;28;20468;-65
2022/03/24 06:56:05;;;;;;;8.95;4.80;;;20.80;99.90;;;;;;5042009;28;20033;-67
2022/03/24 06:58:32;;;;;;;9.73;4.18;;;20.80;99.90;;;;;;5040235;28;20575;-70
2022/03/24 07:00:59;;;;;;;10.38;4.45;;;20.80;99.90;;;;;;5041164;28;20521;-71
2022/03/24 07:03:25;;;;;;;10.27;4.95;;;20.70;99.90;;;;;;5037034;28;20068;-71
2022/03/24 07:05:52;;;;;;;5.80;3.58;;;20.60;99.90;;;;;;5039815;28;20017;-65
2022/03/24 07:08:19;;;;;;;8.02;3.70;;;20.50;99.90;;;;;;5040977;28;20112;-71
2022/03/24 07:10:47;;;;;;;8.45;3.58;;;20.40;99.90;;;;;;5041291;28;20033;-71
2022/03/24 07:13:14;;;;;;;13.95;5.82;;;20.40;99.90;;;;;;5039313;28;20475;-64
2022/03/24 07:15:41;;;;;;;6.38;3.88;;;20.30;99.90;;;;;;5040111;28;20021;-71
2022/03/24 07:18:10;;;;;;;9.40;3.67;;;20.20;99.90;;;;;;5040683;28;20085;-65
2022/03/24 07:20:37;;;;;;;7.30;2.83;;;20.10;99.90;;;;;;5039593;28;20083;-65
2022/03/24 07:23:06;;;;;;;7.82;2.97;;;20.10;99.90;;;;;;5039600;28;20581;-69
2022/03/24 07:25:33;;;;;;;7.45;3.65;;;20.10;99.90;;;;;;5038132;28;20644;-65
2022/03/24 07:28:01;;;;;;;8.45;3.15;;;20.10;99.90;;;;;;5038537;28;20017;-71
2022/03/24 07:30:28;;;;;;;8.10;3.53;;;20.10;99.90;;;;;;5037718;28;20645;-71
2022/03/24 07:32:57;;;;;;;5.75;2.80;;;20.10;99.90;;;;;;5034030;28;20029;-63
2022/03/24 07:35:26;;;;;;;6.38;2.22;;;20.10;99.90;;;;;;5034400;28;20113;-64
2022/03/24 07:37:53;;;;;;;5.32;2.83;;;20.10;99.90;;;;;;5019837;28;20411;-71
2022/03/24 07:40:22;;;;;;;5.95;2.72;;;19.90;99.90;;;;;;5037670;28;20029;-71
2022/03/24 07:42:54;;;;;;;5.10;3.15;;;19.90;99.90;;;;;;5038098;28;20104;-67
2022/03/24 07:45:22;;;;;;;7.70;2.97;;;19.80;99.90;;;;;;5038715;28;20029;-64
2022/03/24 07:48:22;;;;;;;6.25;2.92;;;19.90;99.90;;;;;;5019134;28;20041;-70
2022/03/24 07:50:50;;;;;;;7.28;2.42;;;19.70;99.90;;;;;;5039892;28;20514;-67
2022/03/24 07:53:21;;;;;;;7.68;2.72;;;19.60;99.90;;;;;;5036401;28;20086;-69
2022/03/24 07:55:49;;;;;;;5.43;2.83;;;19.50;99.90;;;;;;5017622;28;20024;-68
2022/03/24 07:58:18;;;;;;;8.32;3.22;;;19.50;99.90;;;;;;5035640;28;20025;-66
2022/03/24 08:00:47;;;;;;;5.38;2.53;;;19.40;99.90;;;;;;5033968;28;20450;-65
2022/03/24 08:03:22;;;;;;;7.47;2.90;;;19.40;99.90;;;;;;5034390;28;21177;-72
2022/03/24 08:05:50;;;;;;;7.93;3.08;;;19.40;99.90;;;;;;5035563;28;20033;-66
2022/03/24 08:08:18;;;;;;;6.75;2.88;;;19.30;99.90;;;;;;5035743;28;20661;-72
2022/03/24 08:10:47;;;;;;;6.78;2.60;;;19.30;99.90;;;;;;5032722;28;20495;-69
2022/03/24 08:13:15;;;;;;;4.80;2.50;;;19.20;99.90;;;;;;5030570;28;20503;-69
2022/03/24 08:15:43;;;;;;;8.75;3.08;;;19.20;99.90;;;;;;5033713;28;20013;-68
2022/03/24 08:18:11;;;;;;;5.35;2.78;;;19.20;99.90;;;;;;5032326;28;20070;-68
2022/03/24 08:20:39;;;;;;;6.82;2.90;;;19.10;99.90;;;;;;5033168;28;20897;-65
2022/03/24 08:23:11;;;;;;;6.03;2.35;;;19.10;99.90;;;;;;5030927;28;20033;-64
2022/03/24 08:25:42;;;;;;;6.88;3.13;;;19.00;99.90;;;;;;5032896;28;20075;-66
2022/03/24 08:28:13;;;;;;;6.82;2.65;;;19.00;99.90;;;;;;5032715;28;20399;-66
2022/03/24 08:30:42;;;;;;;7.30;3.40;;;18.80;99.90;;;;;;5032144;28;20017;-65
2022/03/24 08:33:10;;;;;;;6.63;3.28;;;18.70;99.90;;;;;;5029684;28;20021;-66
2022/03/24 08:35:39;;;;;;;5.95;2.92;;;18.60;99.90;;;;;;5029662;28;20102;-65
2022/03/24 08:38:07;;;;;;;8.63;3.28;;;18.60;99.90;;;;;;5031067;28;20124;-67
2022/03/24 08:40:35;;;;;;;4.18;2.75;;;18.60;99.90;;;;;;5030279;28;20033;-67
2022/03/24 08:43:03;;;;;;;7.57;3.03;;;18.70;99.90;;;;;;5030715;28;20074;-65
2022/03/24 08:45:31;;;;;;;5.65;3.60;;;18.60;99.90;;;;;;5032289;28;20509;-64
2022/03/24 08:47:58;;;;;;;8.05;3.10;;;18.60;99.90;;;;;;5030182;28;20025;-65
2022/03/24 08:50:26;;;;;;;5.75;3.20;;;18.60;99.90;;;;;;5033227;28;20028;-65
2022/03/24 08:52:53;;;;;;;13.80;4.53;;;18.60;99.90;;;;;;5030342;28;20487;-64
2022/03/24 08:55:20;;;;;;;5.95;3.58;;;18.60;99.90;;;;;;5035153;28;20029;-64
2022/03/24 08:57:47;;;;;;;9.40;4.38;;;18.50;99.90;;;;;;5037681;28;20507;-64
2022/03/24 09:00:17;;;;;;;7.80;3.63;;;18.60;99.90;;;;;;5036991;28;20032;-68
2022/03/24 09:02:49;;;;;;;5.38;3.90;;;18.60;99.90;;;;;;5036290;28;20067;-67
2022/03/24 09:05:18;;;;;;;12.85;5.30;;;18.50;99.90;;;;;;5036666;28;20371;-65
2022/03/24 09:07:46;;;;;;;7.63;3.70;;;18.60;99.90;;;;;;5039230;28;20110;-67
2022/03/24 09:10:15;;;;;;;6.63;4.25;;;18.60;99.90;;;;;;5038376;28;20466;-67
2022/03/24 09:12:46;;;;;;;6.00;4.13;;;18.60;99.90;;;;;;5037494;28;20025;-65
2022/03/24 09:15:17;;;;;;;10.40;4.20;;;18.70;99.90;;;;;;5038934;28;20112;-66
2022/03/24 09:17:45;;;;;;;10.68;4.70;;;18.70;99.90;;;;;;5039293;28;20090;-66
2022/03/24 09:20:15;;;;;;;6.35;3.47;;;18.70;99.90;;;;;;5041183;28;20120;-66
2022/03/24 09:22:45;;;;;;;6.95;4.68;;;18.70;99.90;;;;;;5039321;28;20025;-65
2022/03/24 09:25:14;;;;;;;8.38;4.00;;;18.70;99.90;;;;;;5038645;28;20063;-66
2022/03/24 09:27:42;;;;;;;8.20;4.80;;;18.70;99.90;;;;;;5043755;28;20025;-66
2022/03/24 09:30:12;;;;;;;11.18;5.00;;;18.70;99.90;;;;;;5040770;28;20028;-66
2022/03/24 09:32:39;;;;;;;9.27;7.18;;;18.70;99.90;;;;;;5039913;28;20032;-65
2022/03/24 09:35:08;;;;;;;12.95;7.35;;;18.70;99.90;;;;;;5039418;28;20551;-65
2022/03/24 09:37:35;;;;;;;21.60;15.38;;;18.70;99.90;;;;;;5039499;28;20056;-65
2022/03/24 09:40:06;;;;;;;17.80;15.77;;;18.60;99.90;;;;;;5042288;28;20582;-66
2022/03/24 09:42:34;;;;;;;11.75;10.48;;;18.70;99.90;;;;;;5042175;28;20112;-65
2022/03/24 09:45:03;;;;;;;12.50;9.75;;;18.70;99.90;;;;;;5042647;28;20107;-62
2022/03/24 09:47:31;;;;;;;10.95;9.75;;;18.80;99.90;;;;;;5039918;28;20575;-64
2022/03/24 09:49:58;;;;;;;13.60;8.20;;;18.70;99.90;;;;;;5043094;28;20046;-63
2022/03/24 09:52:26;;;;;;;10.15;7.68;;;18.70;99.90;;;;;;5041908;28;20023;-63
2022/03/24 09:54:55;;;;;;;12.73;7.80;;;18.70;99.90;;;;;;5043425;28;20021;-67
2022/03/24 09:57:22;;;;;;;14.57;8.35;;;18.70;99.90;;;;;;5042318;28;20479;-63
2022/03/24 09:59:49;;;;;;;16.02;9.52;;;18.70;99.90;;;;;;5044398;28;20043;-63
2022/03/24 10:02:17;;;;;;;18.40;12.48;;;18.70;99.90;;;;;;5043968;28;20037;-65
2022/03/24 10:04:53;;;;;;;11.48;7.65;;;18.80;99.90;;;;;;5042909;28;20037;-66
2022/03/24 10:07:25;;;;;;;10.13;6.10;;;18.80;99.90;;;;;;5039772;28;20032;-67
2022/03/24 10:09:55;;;;;;;12.75;6.30;;;18.80;99.90;;;;;;5037240;28;20025;-63
2022/03/24 10:12:25;;;;;;;8.93;6.30;;;18.90;99.90;;;;;;5039663;28;20071;-63
2022/03/24 10:15:08;;;;;;;11.30;6.18;;;18.80;99.90;;;;;;5045998;28;20162;-67
2022/03/24 10:17:35;;;;;;;;;;;18.80;99.90;;;;;;5040589;28;20032;-66
2022/03/24 10:20:16;;;;;;;6.00;3.45;;;18.70;99.90;;;;;;5043220;28;19951;-64
2022/03/24 10:22:57;;;;;;;11.15;4.78;;;18.70;99.90;;;;;;5043490;28;20028;-64
2022/03/24 10:25:46;;;;;;;7.80;3.97;;;18.60;99.90;;;;;;5039936;28;20040;-63
2022/03/24 10:28:21;;;;;;;6.43;3.30;;;18.50;99.90;;;;;;5040192;28;20361;-68
2022/03/24 10:30:55;;;;;;;5.32;2.50;;;18.50;99.90;;;;;;5041573;28;20700;-68
2022/03/24 10:33:36;;;;;;;5.97;3.30;;;18.50;99.90;;;;;;5041119;28;20064;-69
2022/03/24 10:38:34;;;;;;;8.00;3.42;;;18.40;99.90;;;;;;5061718;23;20408;-68
2022/03/24 10:41:31;;;;;;;6.95;3.72;;;18.30;99.90;;;;;;5012587;28;20037;-67
2022/03/24 10:44:09;;;;;;;9.05;4.18;;;18.30;99.90;;;;;;4979597;28;20132;-68
2022/03/24 10:46:37;;;;;;;6.10;3.20;;;18.30;99.90;;;;;;4977330;28;20381;-69
2022/03/24 10:49:28;;;;;;;7.50;3.50;;;18.30;99.90;;;;;;4978364;28;20052;-71
2022/03/24 10:51:55;;;;;;;10.30;4.22;;;18.30;99.90;;;;;;4985232;28;20027;-67
2022/03/24 10:54:38;;;;;;;10.10;4.22;;;18.30;99.90;;;;;;4978902;28;20039;-66
2022/03/24 10:57:10;;;;;;;11.40;3.50;;;18.20;99.90;;;;;;4976848;28;20034;-64
2022/03/24 10:59:45;;;;;;;6.82;3.83;;;18.20;99.90;;;;;;4975057;28;20657;-72
2022/03/24 11:02:13;;;;;;;10.32;3.33;;;18.20;99.90;;;;;;4980909;28;20077;-65
2022/03/24 11:04:41;;;;;;;10.98;3.90;;;18.20;99.90;;;;;;4981576;28;20572;-64
2022/03/24 11:07:08;;;;;;;10.35;3.83;;;18.30;99.90;;;;;;4978899;28;20073;-64
2022/03/24 11:09:35;;;;;;;6.05;3.38;;;18.20;99.90;;;;;;4982008;28;20034;-67
2022/03/24 11:12:24;;;;;;;7.50;3.58;;;18.20;99.90;;;;;;4980864;28;20038;-70
2022/03/24 11:14:54;;;;;;;8.70;4.18;;;18.20;99.90;;;;;;4980332;28;20349;-65
2022/03/24 11:17:36;;;;;;;5.55;3.33;;;18.30;99.90;;;;;;4978330;28;20501;-65
2022/03/24 11:20:06;;;;;;;10.93;3.83;;;18.20;99.90;;;;;;4996845;28;20044;-67
2022/03/24 11:22:58;;;;;;;11.30;4.55;;;18.20;99.90;;;;;;5022366;28;20156;-67
2022/03/24 11:25:27;;;;;;;9.48;4.25;;;18.20;99.90;;;;;;5015811;28;20037;-66
2022/03/24 11:27:56;;;;;;;9.30;4.25;;;18.30;99.90;;;;;;5023034;28;20164;-65
2022/03/24 11:30:25;;;;;;;7.72;4.18;;;18.30;99.90;;;;;;5021231;28;20476;-64
2022/03/24 11:32:54;;;;;;;10.93;4.57;;;18.20;99.90;;;;;;5020136;28;20018;-68
2022/03/24 11:35:22;;;;;;;9.13;4.50;;;18.20;99.90;;;;;;5019012;28;20778;-65
2022/03/24 11:37:50;;;;;;;7.95;4.97;;;18.30;99.90;;;;;;5026619;28;20076;-64
2022/03/24 11:40:28;;;;;;;7.20;4.35;;;18.30;99.90;;;;;;5010979;28;20034;-63
2022/03/24 11:43:04;;;;;;;10.40;4.03;;;18.30;99.90;;;;;;5018549;28;20064;-69
2022/03/24 11:45:37;;;;;;;10.52;4.60;;;18.40;99.90;;;;;;4998680;28;20453;-63
2022/03/24 11:48:11;;;;;;;8.15;4.75;;;18.40;99.90;;;;;;5021843;28;20033;-67
2022/03/24 11:50:48;;;;;;;9.45;4.72;;;18.30;99.90;;;;;;5025038;28;20030;-66
2022/03/24 11:53:35;;;;;;;10.25;5.63;;;18.30;99.90;;;;;;5019386;28;20053;-67
2022/03/24 11:56:02;;;;;;;8.60;4.97;;;18.20;99.90;;;;;;5019072;28;20038;-65
2022/03/24 11:58:41;;;;;;;14.55;5.68;;;18.30;99.90;;;;;;5015905;28;20091;-65
2022/03/24 12:01:20;;;;;;;10.23;5.07;;;18.30;99.90;;;;;;4997564;28;20021;-64
2022/03/24 12:03:59;;;;;;;9.77;5.82;;;18.30;99.90;;;;;;5023982;28;20105;-63
2022/03/24 12:06:49;;;;;;;13.02;5.57;;;18.30;99.90;;;;;;5020734;28;20485;-69
2022/03/24 12:09:25;;;;;;;9.75;6.13;;;18.30;99.90;;;;;;5016680;28;20047;-69
2022/03/24 12:12:06;;;;;;;12.18;5.63;;;18.30;99.90;;;;;;5022560;28;20014;-65
2022/03/24 12:14:33;;;;;;;16.90;6.80;;;18.30;99.90;;;;;;5024768;28;20110;-64
2022/03/24 12:17:21;;;;;;;9.13;6.35;;;18.40;99.90;;;;;;5016139;28;20022;-69
2022/03/24 12:19:50;;;;;;;9.98;5.80;;;18.40;99.90;;;;;;5015249;28;20066;-66
2022/03/24 12:22:26;;;;;;;11.38;5.55;;;18.40;99.90;;;;;;5013847;28;20100;-67
2022/03/24 12:25:14;;;;;;;13.50;5.30;;;18.40;99.90;;;;;;5013363;28;20029;-63
2022/03/24 12:28:27;;;;;;;10.63;5.15;;;18.30;99.90;;;;;;4916449;29;20048;-64
2022/03/24 12:31:03;;;;;;;10.80;5.40;;;18.30;99.90;;;;;;4867376;29;20121;-63
2022/03/24 12:33:34;;;;;;;9.20;5.97;;;18.40;99.90;;;;;;4869563;29;20037;-68
2022/03/24 12:36:03;;;;;;;7.95;5.28;;;18.40;99.90;;;;;;4865200;29;20465;-63
2022/03/24 12:38:37;;;;;;;11.07;5.20;;;18.40;99.90;;;;;;4863970;29;20040;-66
2022/03/24 12:41:08;;;;;;;8.57;5.60;;;18.30;99.90;;;;;;4871233;29;20052;-65
2022/03/24 12:43:46;;;;;;;8.07;5.20;;;18.40;99.90;;;;;;4863505;29;20432;-68
2022/03/24 12:46:32;;;;;;;11.30;6.03;;;18.30;99.90;;;;;;4866540;29;20067;-67
2022/03/24 12:49:16;;;;;;;9.05;6.13;;;18.30;99.90;;;;;;4865909;29;20513;-64
2022/03/24 12:52:07;;;;;;;8.65;5.30;;;18.20;99.90;;;;;;4864707;29;20037;-64
2022/03/24 12:54:53;;;;;;;10.27;5.63;;;18.20;99.90;;;;;;4833691;29;20046;-63
2022/03/24 12:57:34;;;;;;;9.30;6.05;;;18.20;99.90;;;;;;4830599;29;21415;-67
2022/03/24 13:00:04;;;;;;;12.95;6.47;;;18.30;99.90;;;;;;4834236;29;20049;-67